sensor_id;sensor_type;location;lat;lon;timestamp;pressure;altitude;pressure_sealevel;temperature
31528;BMP280;10206;48.012;10.030;2022-12-08T00:01:08;94239.78;;;3.90
31528;BMP280;10206;48.012;10.030;2022-12-08T00:03:35;94236.59;;;3.78
31528;BMP280;10206;48.012;10.030;2022-12-08T00:06:03;94238.69;;;3.93
31528;BMP280;10206;48.012;10.030;2022-12-08T00:08:48;94240.75;;;4.08
31528;BMP280;10206;48.012;10.030;2022-12-08T00:11:34;94234.78;;;4.02
31528;BMP280;10206;48.012;10.030;2022-12-08T00:14:00;94227.09;;;4.06
31528;BMP280;10206;48.012;10.030;2022-12-08T00:16:26;94238.25;;;4.10
31528;BMP280;10206;48.012;10.030;2022-12-08T00:18:52;94231.94;;;4.07
31528;BMP280;10206;48.012;10.030;2022-12-08T00:21:18;94238.34;;;3.97
31528;BMP280;10206;48.012;10.030;2022-12-08T00:23:44;94232.41;;;3.98
31528;BMP280;10206;48.012;10.030;2022-12-08T00:26:11;94226.19;;;4.11
31528;BMP280;10206;48.012;10.030;2022-12-08T00:28:37;94224.44;;;4.13
31528;BMP280;10206;48.012;10.030;2022-12-08T00:31:10;94222.88;;;4.25
31528;BMP280;10206;48.012;10.030;2022-12-08T00:33:36;94224.06;;;4.17
31528;BMP280;10206;48.012;10.030;2022-12-08T00:36:10;94219.94;;;4.16
31528;BMP280;10206;48.012;10.030;2022-12-08T00:38:37;94223.34;;;4.16
31528;BMP280;10206;48.012;10.030;2022-12-08T00:41:12;94218.72;;;4.24
31528;BMP280;10206;48.012;10.030;2022-12-08T00:43:38;94215.38;;;4.03
31528;BMP280;10206;48.012;10.030;2022-12-08T00:46:04;94214.22;;;4.27
31528;BMP280;10206;48.012;10.030;2022-12-08T00:48:31;94206.06;;;4.12
31528;BMP280;10206;48.012;10.030;2022-12-08T00:50:57;94208.94;;;4.14
31528;BMP280;10206;48.012;10.030;2022-12-08T00:53:23;94203.91;;;4.18
31528;BMP280;10206;48.012;10.030;2022-12-08T00:55:49;94212.59;;;4.24
31528;BMP280;10206;48.012;10.030;2022-12-08T00:58:15;94206.94;;;4.07
31528;BMP280;10206;48.012;10.030;2022-12-08T01:00:42;94201.03;;;4.16
31528;BMP280;10206;48.012;10.030;2022-12-08T01:03:12;94204.25;;;4.14
31528;BMP280;10206;48.012;10.030;2022-12-08T01:05:38;94197.59;;;4.08
31528;BMP280;10206;48.012;10.030;2022-12-08T01:08:07;94200.59;;;4.32
31528;BMP280;10206;48.012;10.030;2022-12-08T01:10:37;94201.22;;;4.18
31528;BMP280;10206;48.012;10.030;2022-12-08T01:13:04;94202.84;;;4.21
31528;BMP280;10206;48.012;10.030;2022-12-08T01:15:30;94206.81;;;4.20
31528;BMP280;10206;48.012;10.030;2022-12-08T01:17:57;94207.19;;;4.24
31528;BMP280;10206;48.012;10.030;2022-12-08T01:20:23;94191.66;;;4.17
31528;BMP280;10206;48.012;10.030;2022-12-08T01:22:49;94195.63;;;4.16
31528;BMP280;10206;48.012;10.030;2022-12-08T01:25:15;94193.13;;;4.18
31528;BMP280;10206;48.012;10.030;2022-12-08T01:27:41;94203.88;;;4.10
31528;BMP280;10206;48.012;10.030;2022-12-08T01:30:08;94198.31;;;4.08
31528;BMP280;10206;48.012;10.030;2022-12-08T01:32:34;94197.41;;;4.06
31528;BMP280;10206;48.012;10.030;2022-12-08T01:35:01;94196.03;;;4.20
31528;BMP280;10206;48.012;10.030;2022-12-08T01:37:28;94188.84;;;4.22
31528;BMP280;10206;48.012;10.030;2022-12-08T01:39:54;94185.41;;;4.22
31528;BMP280;10206;48.012;10.030;2022-12-08T01:42:21;94187.78;;;4.25
31528;BMP280;10206;48.012;10.030;2022-12-08T01:45:00;94188.06;;;4.14
31528;BMP280;10206;48.012;10.030;2022-12-08T01:47:32;94186.72;;;4.36
31528;BMP280;10206;48.012;10.030;2022-12-08T01:49:59;94181.50;;;4.30
31528;BMP280;10206;48.012;10.030;2022-12-08T01:52:35;94171.97;;;4.29
31528;BMP280;10206;48.012;10.030;2022-12-08T01:55:17;94160.44;;;4.29
31528;BMP280;10206;48.012;10.030;2022-12-08T01:57:57;94167.22;;;4.15
31528;BMP280;10206;48.012;10.030;2022-12-08T02:00:25;94162.47;;;3.93
31528;BMP280;10206;48.012;10.030;2022-12-08T02:03:02;94168.59;;;4.01
31528;BMP280;10206;48.012;10.030;2022-12-08T02:05:35;94167.88;;;4.00
31528;BMP280;10206;48.012;10.030;2022-12-08T02:08:06;94162.44;;;4.36
31528;BMP280;10206;48.012;10.030;2022-12-08T02:10:36;94169.75;;;4.13
31528;BMP280;10206;48.012;10.030;2022-12-08T02:13:03;94164.63;;;4.02
31528;BMP280;10206;48.012;10.030;2022-12-08T02:43:51;94134.53;;;3.82
31528;BMP280;10206;48.012;10.030;2022-12-08T02:46:26;94131.34;;;3.92
31528;BMP280;10206;48.012;10.030;2022-12-08T02:48:55;94126.31;;;3.96
31528;BMP280;10206;48.012;10.030;2022-12-08T02:51:22;94128.78;;;3.86
31528;BMP280;10206;48.012;10.030;2022-12-08T02:53:48;94121.81;;;3.91
31528;BMP280;10206;48.012;10.030;2022-12-08T02:59:08;94127.09;;;3.75
31528;BMP280;10206;48.012;10.030;2022-12-08T03:07:05;94112.28;;;3.89
31528;BMP280;10206;48.012;10.030;2022-12-08T03:09:46;94114.59;;;3.85
31528;BMP280;10206;48.012;10.030;2022-12-08T03:12:36;94103.78;;;3.85
31528;BMP280;10206;48.012;10.030;2022-12-08T03:15:09;94102.34;;;3.84
31528;BMP280;10206;48.012;10.030;2022-12-08T03:17:37;94099.41;;;3.75
31528;BMP280;10206;48.012;10.030;2022-12-08T03:20:10;94099.13;;;3.86
31528;BMP280;10206;48.012;10.030;2022-12-08T03:22:39;94103.13;;;4.00
31528;BMP280;10206;48.012;10.030;2022-12-08T03:25:08;94107.41;;;3.96
31528;BMP280;10206;48.012;10.030;2022-12-08T03:27:34;94095.53;;;3.91
31528;BMP280;10206;48.012;10.030;2022-12-08T03:30:01;94103.47;;;3.89
31528;BMP280;10206;48.012;10.030;2022-12-08T03:32:54;94095.72;;;3.85
31528;BMP280;10206;48.012;10.030;2022-12-08T03:35:25;94088.00;;;3.89
31528;BMP280;10206;48.012;10.030;2022-12-08T03:38:06;94083.84;;;3.88
31528;BMP280;10206;48.012;10.030;2022-12-08T03:40:33;94088.91;;;3.92
31528;BMP280;10206;48.012;10.030;2022-12-08T03:42:59;94084.94;;;3.93
31528;BMP280;10206;48.012;10.030;2022-12-08T03:45:25;94082.78;;;3.92
31528;BMP280;10206;48.012;10.030;2022-12-08T03:47:51;94083.34;;;3.90
31528;BMP280;10206;48.012;10.030;2022-12-08T03:50:17;94079.53;;;3.85
31528;BMP280;10206;48.012;10.030;2022-12-08T03:52:44;94075.00;;;3.80
31528;BMP280;10206;48.012;10.030;2022-12-08T03:55:10;94076.78;;;3.78
31528;BMP280;10206;48.012;10.030;2022-12-08T03:57:36;94068.69;;;3.78
31528;BMP280;10206;48.012;10.030;2022-12-08T04:00:04;94074.13;;;3.85
31528;BMP280;10206;48.012;10.030;2022-12-08T04:02:31;94072.16;;;3.86
31528;BMP280;10206;48.012;10.030;2022-12-08T04:04:57;94071.44;;;3.85
31528;BMP280;10206;48.012;10.030;2022-12-08T04:07:23;94074.06;;;3.78
31528;BMP280;10206;48.012;10.030;2022-12-08T04:09:49;94067.66;;;3.88
31528;BMP280;10206;48.012;10.030;2022-12-08T04:12:15;94064.59;;;3.84
31528;BMP280;10206;48.012;10.030;2022-12-08T04:14:41;94061.75;;;3.90
31528;BMP280;10206;48.012;10.030;2022-12-08T04:17:07;94062.38;;;3.75
31528;BMP280;10206;48.012;10.030;2022-12-08T04:19:33;94066.00;;;3.78
31528;BMP280;10206;48.012;10.030;2022-12-08T04:21:59;94067.44;;;3.79
31528;BMP280;10206;48.012;10.030;2022-12-08T04:24:25;94064.25;;;3.88
31528;BMP280;10206;48.012;10.030;2022-12-08T04:26:52;94054.75;;;4.02
31528;BMP280;10206;48.012;10.030;2022-12-08T04:29:18;94053.84;;;3.92
31528;BMP280;10206;48.012;10.030;2022-12-08T04:31:44;94056.28;;;3.67
31528;BMP280;10206;48.012;10.030;2022-12-08T04:34:10;94058.75;;;3.58
31528;BMP280;10206;48.012;10.030;2022-12-08T04:36:36;94064.91;;;3.73
31528;BMP280;10206;48.012;10.030;2022-12-08T04:39:02;94058.53;;;3.99
31528;BMP280;10206;48.012;10.030;2022-12-08T04:41:28;94049.03;;;4.06
31528;BMP280;10206;48.012;10.030;2022-12-08T04:43:55;94054.16;;;3.81
31528;BMP280;10206;48.012;10.030;2022-12-08T04:46:21;94055.75;;;3.76
31528;BMP280;10206;48.012;10.030;2022-12-08T04:48:47;94054.50;;;3.77
31528;BMP280;10206;48.012;10.030;2022-12-08T04:51:17;94049.75;;;3.55
31528;BMP280;10206;48.012;10.030;2022-12-08T04:53:45;94044.06;;;3.74
31528;BMP280;10206;48.012;10.030;2022-12-08T04:56:16;94051.69;;;3.91
31528;BMP280;10206;48.012;10.030;2022-12-08T04:58:43;94048.78;;;3.81
31528;BMP280;10206;48.012;10.030;2022-12-08T05:01:09;94045.19;;;3.94
31528;BMP280;10206;48.012;10.030;2022-12-08T05:03:35;94047.66;;;3.76
31528;BMP280;10206;48.012;10.030;2022-12-08T05:06:02;94055.38;;;3.72
31528;BMP280;10206;48.012;10.030;2022-12-08T05:08:28;94057.00;;;3.75
31528;BMP280;10206;48.012;10.030;2022-12-08T05:11:06;94054.25;;;4.04
31528;BMP280;10206;48.012;10.030;2022-12-08T05:13:33;94041.09;;;4.00
31528;BMP280;10206;48.012;10.030;2022-12-08T05:16:17;94042.19;;;4.05
31528;BMP280;10206;48.012;10.030;2022-12-08T05:18:43;94037.84;;;4.02
31528;BMP280;10206;48.012;10.030;2022-12-08T05:21:10;94045.75;;;3.92
31528;BMP280;10206;48.012;10.030;2022-12-08T05:23:36;94045.19;;;3.86
31528;BMP280;10206;48.012;10.030;2022-12-08T05:26:02;94044.75;;;3.67
31528;BMP280;10206;48.012;10.030;2022-12-08T05:28:28;94045.50;;;3.67
31528;BMP280;10206;48.012;10.030;2022-12-08T05:30:54;94043.34;;;3.73
31528;BMP280;10206;48.012;10.030;2022-12-08T05:33:20;94038.56;;;3.87
31528;BMP280;10206;48.012;10.030;2022-12-08T05:35:46;94030.28;;;3.93
31528;BMP280;10206;48.012;10.030;2022-12-08T05:38:13;94034.06;;;3.89
31528;BMP280;10206;48.012;10.030;2022-12-08T05:40:39;94040.31;;;3.84
31528;BMP280;10206;48.012;10.030;2022-12-08T05:43:06;94034.41;;;3.86
31528;BMP280;10206;48.012;10.030;2022-12-08T05:45:32;94032.03;;;3.82
31528;BMP280;10206;48.012;10.030;2022-12-08T05:47:58;94022.88;;;3.85
31528;BMP280;10206;48.012;10.030;2022-12-08T05:50:24;94029.00;;;3.86
31528;BMP280;10206;48.012;10.030;2022-12-08T05:52:51;94011.72;;;3.81
31528;BMP280;10206;48.012;10.030;2022-12-08T05:55:17;94024.09;;;3.69
31528;BMP280;10206;48.012;10.030;2022-12-08T05:57:43;94025.41;;;3.83
31528;BMP280;10206;48.012;10.030;2022-12-08T06:00:10;94015.13;;;3.82
31528;BMP280;10206;48.012;10.030;2022-12-08T06:02:36;94021.44;;;3.84
31528;BMP280;10206;48.012;10.030;2022-12-08T06:05:02;94026.81;;;3.84
31528;BMP280;10206;48.012;10.030;2022-12-08T06:07:28;94018.75;;;3.84
31528;BMP280;10206;48.012;10.030;2022-12-08T06:09:54;94021.59;;;3.79
31528;BMP280;10206;48.012;10.030;2022-12-08T06:12:20;94019.22;;;3.60
31528;BMP280;10206;48.012;10.030;2022-12-08T06:14:47;94015.63;;;3.65
31528;BMP280;10206;48.012;10.030;2022-12-08T06:17:13;94026.06;;;3.69
31528;BMP280;10206;48.012;10.030;2022-12-08T06:19:39;94021.03;;;3.65
31528;BMP280;10206;48.012;10.030;2022-12-08T06:22:05;94023.16;;;3.59
31528;BMP280;10206;48.012;10.030;2022-12-08T06:24:31;94023.25;;;3.39
31528;BMP280;10206;48.012;10.030;2022-12-08T06:26:57;94019.72;;;3.51
31528;BMP280;10206;48.012;10.030;2022-12-08T06:29:23;94021.13;;;3.52
31528;BMP280;10206;48.012;10.030;2022-12-08T06:31:49;94012.72;;;3.56
31528;BMP280;10206;48.012;10.030;2022-12-08T06:34:17;94023.91;;;3.67
31528;BMP280;10206;48.012;10.030;2022-12-08T06:36:43;94026.06;;;3.69
31528;BMP280;10206;48.012;10.030;2022-12-08T06:39:09;94020.78;;;3.48
31528;BMP280;10206;48.012;10.030;2022-12-08T06:41:36;94020.47;;;3.23
31528;BMP280;10206;48.012;10.030;2022-12-08T06:44:22;94029.22;;;3.52
31528;BMP280;10206;48.012;10.030;2022-12-08T06:46:48;94024.56;;;3.53
31528;BMP280;10206;48.012;10.030;2022-12-08T06:49:14;94024.22;;;3.56
31528;BMP280;10206;48.012;10.030;2022-12-08T06:51:40;94024.78;;;3.62
31528;BMP280;10206;48.012;10.030;2022-12-08T06:54:06;94022.47;;;3.66
31528;BMP280;10206;48.012;10.030;2022-12-08T06:56:32;94031.09;;;3.72
31528;BMP280;10206;48.012;10.030;2022-12-08T06:58:58;94028.25;;;3.78
31528;BMP280;10206;48.012;10.030;2022-12-08T07:01:24;94021.03;;;3.73
31528;BMP280;10206;48.012;10.030;2022-12-08T07:03:51;94027.91;;;3.81
31528;BMP280;10206;48.012;10.030;2022-12-08T07:06:24;94015.13;;;3.82
31528;BMP280;10206;48.012;10.030;2022-12-08T07:08:50;94023.72;;;3.65
31528;BMP280;10206;48.012;10.030;2022-12-08T07:11:17;94032.94;;;3.77
31528;BMP280;10206;48.012;10.030;2022-12-08T07:13:43;94028.69;;;3.97
31528;BMP280;10206;48.012;10.030;2022-12-08T07:16:10;94031.56;;;3.99
31528;BMP280;10206;48.012;10.030;2022-12-08T07:18:37;94036.59;;;4.03
31528;BMP280;10206;48.012;10.030;2022-12-08T07:21:12;94039.09;;;3.93
31528;BMP280;10206;48.012;10.030;2022-12-08T07:23:40;94027.44;;;4.06
31528;BMP280;10206;48.012;10.030;2022-12-08T07:26:08;94031.03;;;4.08
31528;BMP280;10206;48.012;10.030;2022-12-08T07:28:37;94034.81;;;4.20
31528;BMP280;10206;48.012;10.030;2022-12-08T07:31:04;94041.63;;;4.14
31528;BMP280;10206;48.012;10.030;2022-12-08T07:33:31;94033.03;;;4.23
31528;BMP280;10206;48.012;10.030;2022-12-08T07:35:59;94034.13;;;4.27
31528;BMP280;10206;48.012;10.030;2022-12-08T07:38:27;94043.78;;;3.93
31528;BMP280;10206;48.012;10.030;2022-12-08T07:40:53;94045.13;;;4.29
31528;BMP280;10206;48.012;10.030;2022-12-08T07:43:20;94045.81;;;4.30
31528;BMP280;10206;48.012;10.030;2022-12-08T07:45:47;94036.66;;;4.33
31528;BMP280;10206;48.012;10.030;2022-12-08T07:48:13;94042.78;;;4.41
31528;BMP280;10206;48.012;10.030;2022-12-08T07:50:39;94043.13;;;4.37
31528;BMP280;10206;48.012;10.030;2022-12-08T07:53:06;94041.88;;;4.46
31528;BMP280;10206;48.012;10.030;2022-12-08T07:55:32;94044.03;;;4.40
31528;BMP280;10206;48.012;10.030;2022-12-08T07:57:58;94038.66;;;4.55
31528;BMP280;10206;48.012;10.030;2022-12-08T08:00:24;94040.56;;;4.17
31528;BMP280;10206;48.012;10.030;2022-12-08T08:02:51;94039.38;;;4.48
31528;BMP280;10206;48.012;10.030;2022-12-08T08:05:17;94029.28;;;4.56
31528;BMP280;10206;48.012;10.030;2022-12-08T08:07:43;94027.84;;;4.63
31528;BMP280;10206;48.012;10.030;2022-12-08T08:10:12;94032.88;;;4.66
31528;BMP280;10206;48.012;10.030;2022-12-08T08:12:38;94032.50;;;4.62
31528;BMP280;10206;48.012;10.030;2022-12-08T08:15:06;94033.25;;;4.32
31528;BMP280;10206;48.012;10.030;2022-12-08T08:17:34;94033.97;;;4.63
31528;BMP280;10206;48.012;10.030;2022-12-08T08:20:00;94031.06;;;4.76
31528;BMP280;10206;48.012;10.030;2022-12-08T08:22:27;94026.75;;;4.81
31528;BMP280;10206;48.012;10.030;2022-12-08T08:24:53;94030.16;;;4.81
31528;BMP280;10206;48.012;10.030;2022-12-08T08:27:19;94036.13;;;4.80
31528;BMP280;10206;48.012;10.030;2022-12-08T08:29:45;94025.16;;;4.78
31528;BMP280;10206;48.012;10.030;2022-12-08T08:32:12;94030.53;;;4.93
31528;BMP280;10206;48.012;10.030;2022-12-08T08:34:38;94036.28;;;4.97
31528;BMP280;10206;48.012;10.030;2022-12-08T08:37:04;94027.63;;;4.98
31528;BMP280;10206;48.012;10.030;2022-12-08T08:39:30;94024.34;;;5.07
31528;BMP280;10206;48.012;10.030;2022-12-08T08:41:57;94025.06;;;5.16
31528;BMP280;10206;48.012;10.030;2022-12-08T08:44:23;94028.72;;;4.95
31528;BMP280;10206;48.012;10.030;2022-12-08T08:46:49;94036.09;;;5.10
31528;BMP280;10206;48.012;10.030;2022-12-08T08:49:15;94036.44;;;5.22
31528;BMP280;10206;48.012;10.030;2022-12-08T08:51:41;94044.16;;;5.25
31528;BMP280;10206;48.012;10.030;2022-12-08T08:54:08;94034.41;;;5.30
31528;BMP280;10206;48.012;10.030;2022-12-08T08:56:34;94036.38;;;5.37
31528;BMP280;10206;48.012;10.030;2022-12-08T08:59:01;94034.94;;;5.36
31528;BMP280;10206;48.012;10.030;2022-12-08T09:01:28;94029.34;;;5.34
31528;BMP280;10206;48.012;10.030;2022-12-08T09:03:56;94031.53;;;5.35
31528;BMP280;10206;48.012;10.030;2022-12-08T09:06:24;94034.00;;;5.41
31528;BMP280;10206;48.012;10.030;2022-12-08T09:08:50;94036.63;;;5.56
31528;BMP280;10206;48.012;10.030;2022-12-08T09:11:17;94024.06;;;5.51
31528;BMP280;10206;48.012;10.030;2022-12-08T09:13:46;94024.41;;;5.55
31528;BMP280;10206;48.012;10.030;2022-12-08T09:16:12;94022.03;;;5.59
31528;BMP280;10206;48.012;10.030;2022-12-08T09:18:38;94020.03;;;5.67
31528;BMP280;10206;48.012;10.030;2022-12-08T09:21:10;94034.22;;;5.75
31528;BMP280;10206;48.012;10.030;2022-12-08T09:23:38;94023.31;;;5.58
31528;BMP280;10206;48.012;10.030;2022-12-08T09:26:04;94029.19;;;5.71
31528;BMP280;10206;48.012;10.030;2022-12-08T09:28:31;94023.22;;;5.81
31528;BMP280;10206;48.012;10.030;2022-12-08T09:30:57;94024.84;;;5.76
31528;BMP280;10206;48.012;10.030;2022-12-08T09:33:23;94024.50;;;5.72
31528;BMP280;10206;48.012;10.030;2022-12-08T09:35:49;94016.31;;;5.87
31528;BMP280;10206;48.012;10.030;2022-12-08T09:38:15;94014.13;;;5.93
31528;BMP280;10206;48.012;10.030;2022-12-08T09:40:50;94018.09;;;5.92
31528;BMP280;10206;48.012;10.030;2022-12-08T09:46:05;94009.94;;;6.00
31528;BMP280;10206;48.012;10.030;2022-12-08T09:48:39;94004.13;;;6.03
31528;BMP280;10206;48.012;10.030;2022-12-08T09:51:07;93989.78;;;6.18
31528;BMP280;10206;48.012;10.030;2022-12-08T09:53:46;93995.78;;;6.33
31528;BMP280;10206;48.012;10.030;2022-12-08T09:56:18;93990.22;;;6.31
31528;BMP280;10206;48.012;10.030;2022-12-08T10:01:44;93982.75;;;6.15
31528;BMP280;10206;48.012;10.030;2022-12-08T10:04:26;93979.22;;;6.29
31528;BMP280;10206;48.012;10.030;2022-12-08T10:12:53;93967.31;;;6.50
31528;BMP280;10206;48.012;10.030;2022-12-08T10:18:30;93966.47;;;6.22
31528;BMP280;10206;48.012;10.030;2022-12-08T10:21:13;93970.78;;;6.25
31528;BMP280;10206;48.012;10.030;2022-12-08T10:23:42;93961.69;;;6.30
31528;BMP280;10206;48.012;10.030;2022-12-08T10:26:15;93963.53;;;6.28
31528;BMP280;10206;48.012;10.030;2022-12-08T10:28:42;93962.47;;;6.23
31528;BMP280;10206;48.012;10.030;2022-12-08T10:31:17;93954.53;;;6.25
31528;BMP280;10206;48.012;10.030;2022-12-08T10:33:43;93951.44;;;6.04
31528;BMP280;10206;48.012;10.030;2022-12-08T10:36:11;93951.94;;;6.10
31528;BMP280;10206;48.012;10.030;2022-12-08T10:38:39;93948.81;;;6.14
31528;BMP280;10206;48.012;10.030;2022-12-08T10:41:11;93945.69;;;6.25
31528;BMP280;10206;48.012;10.030;2022-12-08T10:43:43;93945.84;;;6.27
31528;BMP280;10206;48.012;10.030;2022-12-08T10:51:36;93939.56;;;6.00
31528;BMP280;10206;48.012;10.030;2022-12-08T10:54:03;93936.47;;;6.03
31528;BMP280;10206;48.012;10.030;2022-12-08T10:56:32;93935.81;;;5.95
31528;BMP280;10206;48.012;10.030;2022-12-08T10:59:18;93920.28;;;5.96
31528;BMP280;10206;48.012;10.030;2022-12-08T11:01:48;93920.91;;;6.28
31528;BMP280;10206;48.012;10.030;2022-12-08T11:04:35;93918.16;;;6.36
31528;BMP280;10206;48.012;10.030;2022-12-08T11:07:04;93917.38;;;6.60
31528;BMP280;10206;48.012;10.030;2022-12-08T11:09:41;93915.06;;;6.57
31528;BMP280;10206;48.012;10.030;2022-12-08T11:12:14;93902.97;;;6.58
31528;BMP280;10206;48.012;10.030;2022-12-08T11:17:11;93907.00;;;6.49
31528;BMP280;10206;48.012;10.030;2022-12-08T11:19:43;93902.56;;;6.61
31528;BMP280;10206;48.012;10.030;2022-12-08T11:22:37;93895.31;;;6.64
31528;BMP280;10206;48.012;10.030;2022-12-08T11:27:39;93897.28;;;6.29
31528;BMP280;10206;48.012;10.030;2022-12-08T11:30:16;93886.53;;;6.56
31528;BMP280;10206;48.012;10.030;2022-12-08T11:32:45;93896.59;;;6.46
31528;BMP280;10206;48.012;10.030;2022-12-08T11:35:25;93883.81;;;6.56
31528;BMP280;10206;48.012;10.030;2022-12-08T11:37:52;93886.44;;;6.46
31528;BMP280;10206;48.012;10.030;2022-12-08T11:40:27;93891.00;;;6.61
31528;BMP280;10206;48.012;10.030;2022-12-08T11:45:39;93885.59;;;6.61
31528;BMP280;10206;48.012;10.030;2022-12-08T11:50:41;93890.91;;;6.34
31528;BMP280;10206;48.012;10.030;2022-12-08T11:56:26;93885.84;;;6.38
31528;BMP280;10206;48.012;10.030;2022-12-08T11:59:04;93880.25;;;6.53
31528;BMP280;10206;48.012;10.030;2022-12-08T12:01:33;93874.50;;;6.49
31528;BMP280;10206;48.012;10.030;2022-12-08T12:15:28;93876.44;;;6.73
31528;BMP280;10206;48.012;10.030;2022-12-08T12:18:00;93867.69;;;6.92
31528;BMP280;10206;48.012;10.030;2022-12-08T12:26:05;93859.19;;;6.78
31528;BMP280;10206;48.012;10.030;2022-12-08T12:28:41;93860.84;;;6.91
31528;BMP280;10206;48.012;10.030;2022-12-08T12:31:12;93857.59;;;6.75
31528;BMP280;10206;48.012;10.030;2022-12-08T12:33:41;93856.78;;;6.82
31528;BMP280;10206;48.012;10.030;2022-12-08T12:36:09;93844.00;;;6.66
31528;BMP280;10206;48.012;10.030;2022-12-08T12:38:49;93854.13;;;6.48
31528;BMP280;10206;48.012;10.030;2022-12-08T12:41:33;93843.22;;;6.39
31528;BMP280;10206;48.012;10.030;2022-12-08T12:47:04;93836.84;;;6.61
31528;BMP280;10206;48.012;10.030;2022-12-08T12:57:37;93836.13;;;6.60
31528;BMP280;10206;48.012;10.030;2022-12-08T13:02:32;93830.31;;;6.64
31528;BMP280;10206;48.012;10.030;2022-12-08T13:05:23;93822.97;;;6.57
31528;BMP280;10206;48.012;10.030;2022-12-08T13:11:03;93821.69;;;6.58
31528;BMP280;10206;48.012;10.030;2022-12-08T13:13:30;93819.72;;;6.58
31528;BMP280;10206;48.012;10.030;2022-12-08T13:18:50;93828.03;;;6.26
31528;BMP280;10206;48.012;10.030;2022-12-08T13:21:20;93831.50;;;6.53
31528;BMP280;10206;48.012;10.030;2022-12-08T13:29:37;93827.59;;;6.47
31528;BMP280;10206;48.012;10.030;2022-12-08T13:32:50;93823.53;;;6.55
31528;BMP280;10206;48.012;10.030;2022-12-08T13:34:55;93822.97;;;6.57
31528;BMP280;10206;48.012;10.030;2022-12-08T13:40:14;93826.38;;;6.74
31528;BMP280;10206;48.012;10.030;2022-12-08T13:50:50;93811.06;;;6.25
31528;BMP280;10206;48.012;10.030;2022-12-08T13:53:22;93817.78;;;6.17
31528;BMP280;10206;48.012;10.030;2022-12-08T13:55:53;93813.25;;;6.02
31528;BMP280;10206;48.012;10.030;2022-12-08T13:58:25;93819.72;;;6.07
31528;BMP280;10206;48.012;10.030;2022-12-08T14:01:03;93817.41;;;6.03
31528;BMP280;10206;48.012;10.030;2022-12-08T14:03:42;93821.53;;;6.04
31528;BMP280;10206;48.012;10.030;2022-12-08T14:06:14;93816.91;;;6.14
31528;BMP280;10206;48.012;10.030;2022-12-08T14:08:41;93820.34;;;5.98
31528;BMP280;10206;48.012;10.030;2022-12-08T14:11:15;93822.56;;;6.09
31528;BMP280;10206;48.012;10.030;2022-12-08T14:14:04;93821.38;;;6.02
31528;BMP280;10206;48.012;10.030;2022-12-08T14:16:39;93823.09;;;5.90
31528;BMP280;10206;48.012;10.030;2022-12-08T14:19:18;93819.63;;;5.72
31528;BMP280;10206;48.012;10.030;2022-12-08T14:24:24;93818.34;;;5.98
31528;BMP280;10206;48.012;10.030;2022-12-08T14:26:53;93818.56;;;5.93
31528;BMP280;10206;48.012;10.030;2022-12-08T14:29:39;93816.59;;;5.93
31528;BMP280;10206;48.012;10.030;2022-12-08T14:32:21;93809.88;;;5.94
31528;BMP280;10206;48.012;10.030;2022-12-08T14:37:36;93822.81;;;6.03
31528;BMP280;10206;48.012;10.030;2022-12-08T14:40:09;93824.72;;;5.93
31528;BMP280;10206;48.012;10.030;2022-12-08T14:42:51;93833.75;;;5.88
31528;BMP280;10206;48.012;10.030;2022-12-08T14:45:18;93820.78;;;5.87
31528;BMP280;10206;48.012;10.030;2022-12-08T14:47:44;93824.28;;;5.80
31528;BMP280;10206;48.012;10.030;2022-12-08T14:50:37;93826.13;;;5.94
31528;BMP280;10206;48.012;10.030;2022-12-08T14:53:15;93812.66;;;5.87
31528;BMP280;10206;48.012;10.030;2022-12-08T14:55:43;93820.69;;;5.77
31528;BMP280;10206;48.012;10.030;2022-12-08T14:58:28;93818.88;;;5.55
31528;BMP280;10206;48.012;10.030;2022-12-08T15:00:58;93821.53;;;5.62
31528;BMP280;10206;48.012;10.030;2022-12-08T15:03:29;93831.41;;;5.67
31528;BMP280;10206;48.012;10.030;2022-12-08T15:05:58;93830.28;;;5.46
31528;BMP280;10206;48.012;10.030;2022-12-08T15:08:25;93835.09;;;5.55
31528;BMP280;10206;48.012;10.030;2022-12-08T15:11:10;93831.13;;;5.31
31528;BMP280;10206;48.012;10.030;2022-12-08T15:13:44;93841.50;;;5.42
31528;BMP280;10206;48.012;10.030;2022-12-08T15:21:36;93837.50;;;5.43
31528;BMP280;10206;48.012;10.030;2022-12-08T15:24:03;93838.06;;;5.42
31528;BMP280;10206;48.012;10.030;2022-12-08T15:26:33;93832.63;;;5.49
31528;BMP280;10206;48.012;10.030;2022-12-08T15:31:42;93822.25;;;5.38
31528;BMP280;10206;48.012;10.030;2022-12-08T15:34:08;93820.69;;;5.28
31528;BMP280;10206;48.012;10.030;2022-12-08T15:36:34;93815.28;;;5.28
31528;BMP280;10206;48.012;10.030;2022-12-08T15:39:04;93829.16;;;5.24
31528;BMP280;10206;48.012;10.030;2022-12-08T15:41:30;93829.94;;;5.17
31528;BMP280;10206;48.012;10.030;2022-12-08T15:43:56;93838.84;;;5.02
31528;BMP280;10206;48.012;10.030;2022-12-08T15:46:22;93836.97;;;4.80
31528;BMP280;10206;48.012;10.030;2022-12-08T15:48:49;93832.66;;;4.77
31528;BMP280;10206;48.012;10.030;2022-12-08T15:51:15;93821.06;;;4.52
31528;BMP280;10206;48.012;10.030;2022-12-08T15:53:41;93827.19;;;4.45
31528;BMP280;10206;48.012;10.030;2022-12-08T15:56:07;93827.19;;;4.37
31528;BMP280;10206;48.012;10.030;2022-12-08T15:58:34;93816.94;;;4.36
31528;BMP280;10206;48.012;10.030;2022-12-08T16:01:00;93816.56;;;4.39
31528;BMP280;10206;48.012;10.030;2022-12-08T16:03:30;93814.59;;;4.40
31528;BMP280;10206;48.012;10.030;2022-12-08T16:05:58;93816.78;;;4.34
31528;BMP280;10206;48.012;10.030;2022-12-08T16:08:28;93819.31;;;4.32
31528;BMP280;10206;48.012;10.030;2022-12-08T16:10:55;93810.66;;;4.33
31528;BMP280;10206;48.012;10.030;2022-12-08T16:13:41;93807.63;;;4.29
31528;BMP280;10206;48.012;10.030;2022-12-08T16:16:17;93804.72;;;4.27
31528;BMP280;10206;48.012;10.030;2022-12-08T16:18:47;93798.81;;;4.21
31528;BMP280;10206;48.012;10.030;2022-12-08T16:21:14;93795.97;;;4.04
31528;BMP280;10206;48.012;10.030;2022-12-08T16:23:41;93809.28;;;3.95
31528;BMP280;10206;48.012;10.030;2022-12-08T16:26:14;93800.44;;;3.94
31528;BMP280;10206;48.012;10.030;2022-12-08T16:28:41;93804.44;;;3.93
31528;BMP280;10206;48.012;10.030;2022-12-08T16:31:10;93805.53;;;3.82
31528;BMP280;10206;48.012;10.030;2022-12-08T16:33:37;93809.31;;;3.79
31528;BMP280;10206;48.012;10.030;2022-12-08T16:36:03;93804.25;;;3.76
31528;BMP280;10206;48.012;10.030;2022-12-08T16:38:29;93803.53;;;3.75